sensor_id;sensor_type;location;lat;lon;timestamp;P1;durP1;ratioP1;P2;durP2;ratioP2
74656;SDS011;63185;45.642;13.764;2023-05-08T00:02:03;9.20;;;5.00;;
74656;SDS011;63185;45.642;13.764;2023-05-08T00:04:28;8.07;;;4.53;;
74656;SDS011;63185;45.642;13.764;2023-05-08T00:06:54;9.60;;;4.65;;
74656;SDS011;63185;45.642;13.764;2023-05-08T00:09:20;8.50;;;4.57;;
74656;SDS011;63185;45.642;13.764;2023-05-08T00:11:46;7.55;;;5.00;;
74656;SDS011;63185;45.642;13.764;2023-05-08T00:14:11;7.95;;;4.68;;
74656;SDS011;63185;45.642;13.764;2023-05-08T00:16:37;6.43;;;4.55;;
74656;SDS011;63185;45.642;13.764;2023-05-08T00:19:03;8.45;;;4.68;;
74656;SDS011;63185;45.642;13.764;2023-05-08T00:21:28;9.75;;;5.00;;
74656;SDS011;63185;45.642;13.764;2023-05-08T00:23:55;7.10;;;4.85;;
74656;SDS011;63185;45.642;13.764;2023-05-08T00:26:20;6.18;;;4.70;;
74656;SDS011;63185;45.642;13.764;2023-05-08T00:28:46;6.88;;;5.25;;
74656;SDS011;63185;45.642;13.764;2023-05-08T00:31:12;9.60;;;5.55;;
74656;SDS011;63185;45.642;13.764;2023-05-08T00:33:38;7.60;;;4.82;;
74656;SDS011;63185;45.642;13.764;2023-05-08T00:36:05;8.18;;;5.45;;
74656;SDS011;63185;45.642;13.764;2023-05-08T00:38:31;5.93;;;4.85;;
74656;SDS011;63185;45.642;13.764;2023-05-08T00:40:58;11.45;;;5.60;;
74656;SDS011;63185;45.642;13.764;2023-05-08T00:43:24;7.78;;;5.75;;
74656;SDS011;63185;45.642;13.764;2023-05-08T00:45:52;9.05;;;5.32;;
74656;SDS011;63185;45.642;13.764;2023-05-08T00:48:23;7.45;;;5.13;;
74656;SDS011;63185;45.642;13.764;2023-05-08T00:50:52;8.60;;;5.22;;
74656;SDS011;63185;45.642;13.764;2023-05-08T00:53:19;6.68;;;5.20;;
74656;SDS011;63185;45.642;13.764;2023-05-08T00:55:47;9.45;;;5.70;;
74656;SDS011;63185;45.642;13.764;2023-05-08T00:58:15;8.15;;;5.82;;
74656;SDS011;63185;45.642;13.764;2023-05-08T01:00:42;9.05;;;6.60;;
74656;SDS011;63185;45.642;13.764;2023-05-08T01:03:09;8.65;;;6.10;;
74656;SDS011;63185;45.642;13.764;2023-05-08T01:05:36;7.75;;;5.55;;
74656;SDS011;63185;45.642;13.764;2023-05-08T01:08:02;6.85;;;5.63;;
74656;SDS011;63185;45.642;13.764;2023-05-08T01:10:31;10.57;;;5.85;;
74656;SDS011;63185;45.642;13.764;2023-05-08T01:22:20;6.55;;;5.22;;
74656;SDS011;63185;45.642;13.764;2023-05-08T01:30:38;6.70;;;5.57;;
74656;SDS011;63185;45.642;13.764;2023-05-08T01:33:32;9.48;;;6.13;;
74656;SDS011;63185;45.642;13.764;2023-05-08T01:35:58;6.93;;;5.40;;
74656;SDS011;63185;45.642;13.764;2023-05-08T01:38:31;5.82;;;5.22;;
74656;SDS011;63185;45.642;13.764;2023-05-08T01:41:15;8.45;;;5.13;;
74656;SDS011;63185;45.642;13.764;2023-05-08T01:43:54;7.50;;;5.43;;
74656;SDS011;63185;45.642;13.764;2023-05-08T01:46:34;6.90;;;5.60;;
74656;SDS011;63185;45.642;13.764;2023-05-08T01:49:05;8.10;;;5.40;;
74656;SDS011;63185;45.642;13.764;2023-05-08T01:51:48;8.65;;;5.32;;
74656;SDS011;63185;45.642;13.764;2023-05-08T01:55:00;6.20;;;5.22;;
74656;SDS011;63185;45.642;13.764;2023-05-08T01:57:27;5.88;;;5.05;;
74656;SDS011;63185;45.642;13.764;2023-05-08T01:59:55;7.22;;;5.47;;
74656;SDS011;63185;45.642;13.764;2023-05-08T02:02:24;8.18;;;5.50;;
74656;SDS011;63185;45.642;13.764;2023-05-08T02:04:52;8.00;;;5.15;;
74656;SDS011;63185;45.642;13.764;2023-05-08T02:07:19;8.15;;;5.50;;
74656;SDS011;63185;45.642;13.764;2023-05-08T02:09:46;8.52;;;6.15;;
74656;SDS011;63185;45.642;13.764;2023-05-08T02:12:12;8.00;;;5.63;;
74656;SDS011;63185;45.642;13.764;2023-05-08T02:14:40;8.55;;;5.90;;
74656;SDS011;63185;45.642;13.764;2023-05-08T02:17:08;7.93;;;6.00;;
74656;SDS011;63185;45.642;13.764;2023-05-08T02:19:35;7.13;;;5.28;;
74656;SDS011;63185;45.642;13.764;2023-05-08T02:22:03;9.07;;;5.50;;
74656;SDS011;63185;45.642;13.764;2023-05-08T02:24:31;6.82;;;5.07;;
74656;SDS011;63185;45.642;13.764;2023-05-08T02:26:59;7.22;;;4.50;;
74656;SDS011;63185;45.642;13.764;2023-05-08T02:29:26;5.15;;;4.63;;
74656;SDS011;63185;45.642;13.764;2023-05-08T02:31:52;5.95;;;4.10;;
74656;SDS011;63185;45.642;13.764;2023-05-08T02:34:20;6.90;;;4.47;;
74656;SDS011;63185;45.642;13.764;2023-05-08T02:36:48;5.50;;;3.95;;
74656;SDS011;63185;45.642;13.764;2023-05-08T02:39:15;7.35;;;5.45;;
74656;SDS011;63185;45.642;13.764;2023-05-08T02:41:43;7.53;;;4.55;;
74656;SDS011;63185;45.642;13.764;2023-05-08T02:44:09;6.38;;;4.18;;
74656;SDS011;63185;45.642;13.764;2023-05-08T02:46:40;8.15;;;4.43;;
74656;SDS011;63185;45.642;13.764;2023-05-08T03:02:48;5.97;;;4.43;;
74656;SDS011;63185;45.642;13.764;2023-05-08T03:05:18;6.78;;;3.90;;
74656;SDS011;63185;45.642;13.764;2023-05-08T03:07:50;6.22;;;3.60;;
74656;SDS011;63185;45.642;13.764;2023-05-08T03:10:20;6.65;;;3.70;;
74656;SDS011;63185;45.642;13.764;2023-05-08T03:12:52;5.13;;;4.10;;
74656;SDS011;63185;45.642;13.764;2023-05-08T03:15:23;5.28;;;3.85;;
74656;SDS011;63185;45.642;13.764;2023-05-08T03:17:55;5.68;;;4.05;;
74656;SDS011;63185;45.642;13.764;2023-05-08T03:20:23;5.88;;;4.22;;
74656;SDS011;63185;45.642;13.764;2023-05-08T03:22:55;8.10;;;4.70;;
74656;SDS011;63185;45.642;13.764;2023-05-08T03:25:21;6.55;;;4.80;;
74656;SDS011;63185;45.642;13.764;2023-05-08T03:27:47;7.00;;;4.72;;
74656;SDS011;63185;45.642;13.764;2023-05-08T03:30:14;6.93;;;5.07;;
74656;SDS011;63185;45.642;13.764;2023-05-08T03:32:42;10.57;;;5.70;;
74656;SDS011;63185;45.642;13.764;2023-05-08T03:35:10;10.02;;;5.90;;
74656;SDS011;63185;45.642;13.764;2023-05-08T03:37:37;9.13;;;6.20;;
74656;SDS011;63185;45.642;13.764;2023-05-08T03:40:03;8.93;;;6.15;;
74656;SDS011;63185;45.642;13.764;2023-05-08T03:42:31;9.10;;;6.00;;
74656;SDS011;63185;45.642;13.764;2023-05-08T03:44:57;7.47;;;5.63;;
74656;SDS011;63185;45.642;13.764;2023-05-08T03:47:23;6.97;;;5.90;;
74656;SDS011;63185;45.642;13.764;2023-05-08T03:49:52;5.63;;;4.82;;
74656;SDS011;63185;45.642;13.764;2023-05-08T03:52:19;9.73;;;5.88;;
74656;SDS011;63185;45.642;13.764;2023-05-08T03:54:45;9.35;;;6.53;;
74656;SDS011;63185;45.642;13.764;2023-05-08T03:57:11;11.18;;;6.20;;
74656;SDS011;63185;45.642;13.764;2023-05-08T03:59:40;9.98;;;5.70;;
74656;SDS011;63185;45.642;13.764;2023-05-08T04:04:46;6.97;;;5.53;;
74656;SDS011;63185;45.642;13.764;2023-05-08T04:15:47;7.80;;;5.63;;
74656;SDS011;63185;45.642;13.764;2023-05-08T04:18:21;7.25;;;5.25;;
74656;SDS011;63185;45.642;13.764;2023-05-08T04:20:50;8.10;;;5.60;;
74656;SDS011;63185;45.642;13.764;2023-05-08T04:25:46;9.20;;;6.13;;
74656;SDS011;63185;45.642;13.764;2023-05-08T04:28:14;9.60;;;6.07;;
74656;SDS011;63185;45.642;13.764;2023-05-08T04:30:40;8.65;;;5.90;;
74656;SDS011;63185;45.642;13.764;2023-05-08T04:33:06;8.60;;;6.20;;
74656;SDS011;63185;45.642;13.764;2023-05-08T04:35:33;12.63;;;6.80;;
74656;SDS011;63185;45.642;13.764;2023-05-08T04:37:58;8.07;;;5.85;;
74656;SDS011;63185;45.642;13.764;2023-05-08T04:40:24;10.38;;;5.82;;
74656;SDS011;63185;45.642;13.764;2023-05-08T04:42:50;9.02;;;5.30;;
74656;SDS011;63185;45.642;13.764;2023-05-08T04:45:16;7.10;;;5.75;;
74656;SDS011;63185;45.642;13.764;2023-05-08T04:47:42;7.95;;;5.68;;
74656;SDS011;63185;45.642;13.764;2023-05-08T04:50:08;6.93;;;5.32;;
74656;SDS011;63185;45.642;13.764;2023-05-08T04:52:34;8.48;;;5.70;;
74656;SDS011;63185;45.642;13.764;2023-05-08T04:55:00;7.10;;;5.90;;
74656;SDS011;63185;45.642;13.764;2023-05-08T04:57:26;8.40;;;6.68;;
74656;SDS011;63185;45.642;13.764;2023-05-08T04:59:51;7.05;;;5.78;;
74656;SDS011;63185;45.642;13.764;2023-05-08T05:02:17;7.32;;;6.55;;
74656;SDS011;63185;45.642;13.764;2023-05-08T05:04:43;7.00;;;5.63;;
74656;SDS011;63185;45.642;13.764;2023-05-08T05:07:08;9.80;;;5.15;;
74656;SDS011;63185;45.642;13.764;2023-05-08T05:09:34;8.07;;;5.63;;
74656;SDS011;63185;45.642;13.764;2023-05-08T05:12:01;8.20;;;4.68;;
74656;SDS011;63185;45.642;13.764;2023-05-08T05:14:28;7.57;;;5.60;;
74656;SDS011;63185;45.642;13.764;2023-05-08T05:16:54;7.07;;;5.28;;
74656;SDS011;63185;45.642;13.764;2023-05-08T05:19:20;8.93;;;5.18;;
74656;SDS011;63185;45.642;13.764;2023-05-08T05:21:45;8.20;;;5.32;;
74656;SDS011;63185;45.642;13.764;2023-05-08T05:24:11;6.55;;;5.07;;
74656;SDS011;63185;45.642;13.764;2023-05-08T05:26:37;7.13;;;5.25;;
74656;SDS011;63185;45.642;13.764;2023-05-08T05:29:03;6.35;;;5.20;;
74656;SDS011;63185;45.642;13.764;2023-05-08T05:31:29;6.60;;;4.88;;
74656;SDS011;63185;45.642;13.764;2023-05-08T05:33:54;7.22;;;5.65;;
74656;SDS011;63185;45.642;13.764;2023-05-08T05:36:20;5.35;;;4.53;;
74656;SDS011;63185;45.642;13.764;2023-05-08T05:38:46;6.28;;;5.20;;
74656;SDS011;63185;45.642;13.764;2023-05-08T05:41:12;6.78;;;4.93;;
74656;SDS011;63185;45.642;13.764;2023-05-08T05:43:38;7.28;;;5.20;;
74656;SDS011;63185;45.642;13.764;2023-05-08T05:46:07;6.25;;;5.30;;
74656;SDS011;63185;45.642;13.764;2023-05-08T05:48:33;7.57;;;5.38;;
74656;SDS011;63185;45.642;13.764;2023-05-08T05:51:00;6.90;;;5.30;;
74656;SDS011;63185;45.642;13.764;2023-05-08T05:53:26;8.45;;;4.90;;
74656;SDS011;63185;45.642;13.764;2023-05-08T05:55:52;6.90;;;4.72;;
74656;SDS011;63185;45.642;13.764;2023-05-08T05:58:17;6.18;;;4.63;;
74656;SDS011;63185;45.642;13.764;2023-05-08T06:00:43;6.90;;;4.85;;
74656;SDS011;63185;45.642;13.764;2023-05-08T06:03:09;6.80;;;4.35;;
74656;SDS011;63185;45.642;13.764;2023-05-08T06:05:35;6.05;;;4.47;;
74656;SDS011;63185;45.642;13.764;2023-05-08T06:08:01;5.72;;;4.22;;
74656;SDS011;63185;45.642;13.764;2023-05-08T06:10:27;8.32;;;4.57;;
74656;SDS011;63185;45.642;13.764;2023-05-08T06:12:53;9.57;;;4.30;;
74656;SDS011;63185;45.642;13.764;2023-05-08T06:15:19;8.45;;;4.38;;
74656;SDS011;63185;45.642;13.764;2023-05-08T06:17:45;6.07;;;3.90;;
74656;SDS011;63185;45.642;13.764;2023-05-08T06:20:11;8.57;;;4.80;;
74656;SDS011;63185;45.642;13.764;2023-05-08T06:22:37;6.35;;;4.10;;
74656;SDS011;63185;45.642;13.764;2023-05-08T06:25:04;5.88;;;4.10;;
74656;SDS011;63185;45.642;13.764;2023-05-08T06:27:33;4.57;;;3.58;;
74656;SDS011;63185;45.642;13.764;2023-05-08T06:29:59;4.97;;;3.55;;
74656;SDS011;63185;45.642;13.764;2023-05-08T06:32:26;6.68;;;4.20;;
74656;SDS011;63185;45.642;13.764;2023-05-08T06:34:51;7.75;;;4.47;;
74656;SDS011;63185;45.642;13.764;2023-05-08T06:37:17;6.22;;;3.95;;
74656;SDS011;63185;45.642;13.764;2023-05-08T06:39:43;4.70;;;3.40;;
74656;SDS011;63185;45.642;13.764;2023-05-08T06:42:08;9.07;;;3.70;;
74656;SDS011;63185;45.642;13.764;2023-05-08T06:44:35;6.07;;;4.20;;
74656;SDS011;63185;45.642;13.764;2023-05-08T06:47:00;7.22;;;3.60;;
74656;SDS011;63185;45.642;13.764;2023-05-08T06:49:26;6.82;;;4.18;;
74656;SDS011;63185;45.642;13.764;2023-05-08T06:51:52;6.05;;;4.32;;
74656;SDS011;63185;45.642;13.764;2023-05-08T06:54:18;5.60;;;3.72;;
74656;SDS011;63185;45.642;13.764;2023-05-08T06:56:44;6.30;;;3.95;;
74656;SDS011;63185;45.642;13.764;2023-05-08T06:59:10;5.80;;;4.20;;
74656;SDS011;63185;45.642;13.764;2023-05-08T07:01:35;5.55;;;3.30;;
74656;SDS011;63185;45.642;13.764;2023-05-08T07:04:01;6.07;;;3.90;;
74656;SDS011;63185;45.642;13.764;2023-05-08T07:06:28;5.97;;;3.38;;
74656;SDS011;63185;45.642;13.764;2023-05-08T07:08:55;4.30;;;3.20;;
74656;SDS011;63185;45.642;13.764;2023-05-08T07:11:21;8.13;;;4.10;;
74656;SDS011;63185;45.642;13.764;2023-05-08T07:13:47;6.90;;;3.42;;
74656;SDS011;63185;45.642;13.764;2023-05-08T07:16:15;6.43;;;3.30;;
74656;SDS011;63185;45.642;13.764;2023-05-08T07:18:41;4.83;;;2.70;;
74656;SDS011;63185;45.642;13.764;2023-05-08T07:21:07;6.00;;;3.30;;
74656;SDS011;63185;45.642;13.764;2023-05-08T07:23:34;5.78;;;3.35;;
74656;SDS011;63185;45.642;13.764;2023-05-08T07:25:59;4.68;;;3.22;;
74656;SDS011;63185;45.642;13.764;2023-05-08T07:28:25;10.10;;;3.33;;
74656;SDS011;63185;45.642;13.764;2023-05-08T07:30:51;9.95;;;3.22;;
74656;SDS011;63185;45.642;13.764;2023-05-08T07:33:17;9.25;;;3.67;;
74656;SDS011;63185;45.642;13.764;2023-05-08T07:35:43;5.18;;;3.08;;
74656;SDS011;63185;45.642;13.764;2023-05-08T07:38:09;5.13;;;2.85;;
74656;SDS011;63185;45.642;13.764;2023-05-08T07:40:34;4.63;;;3.00;;
74656;SDS011;63185;45.642;13.764;2023-05-08T07:43:00;8.68;;;3.33;;
74656;SDS011;63185;45.642;13.764;2023-05-08T07:45:26;10.85;;;3.15;;
74656;SDS011;63185;45.642;13.764;2023-05-08T07:47:52;5.18;;;2.97;;
74656;SDS011;63185;45.642;13.764;2023-05-08T07:50:19;5.88;;;3.03;;
74656;SDS011;63185;45.642;13.764;2023-05-08T07:52:45;6.25;;;3.08;;
74656;SDS011;63185;45.642;13.764;2023-05-08T07:55:11;7.38;;;3.20;;
74656;SDS011;63185;45.642;13.764;2023-05-08T07:57:38;7.55;;;3.13;;
74656;SDS011;63185;45.642;13.764;2023-05-08T08:00:06;6.57;;;3.58;;
74656;SDS011;63185;45.642;13.764;2023-05-08T08:02:33;3.75;;;2.63;;
74656;SDS011;63185;45.642;13.764;2023-05-08T08:04:59;6.72;;;3.13;;
74656;SDS011;63185;45.642;13.764;2023-05-08T08:07:25;11.30;;;3.60;;
74656;SDS011;63185;45.642;13.764;2023-05-08T08:09:51;3.75;;;2.90;;
74656;SDS011;63185;45.642;13.764;2023-05-08T08:12:17;5.00;;;2.60;;
74656;SDS011;63185;45.642;13.764;2023-05-08T08:14:45;4.68;;;3.08;;
74656;SDS011;63185;45.642;13.764;2023-05-08T08:17:11;5.57;;;4.40;;
74656;SDS011;63185;45.642;13.764;2023-05-08T08:19:37;5.63;;;3.67;;
74656;SDS011;63185;45.642;13.764;2023-05-08T08:22:03;7.00;;;2.70;;
74656;SDS011;63185;45.642;13.764;2023-05-08T08:24:29;5.38;;;4.10;;
74656;SDS011;63185;45.642;13.764;2023-05-08T08:26:56;6.22;;;2.67;;
74656;SDS011;63185;45.642;13.764;2023-05-08T08:29:21;5.03;;;2.67;;
74656;SDS011;63185;45.642;13.764;2023-05-08T08:31:47;4.95;;;3.65;;
74656;SDS011;63185;45.642;13.764;2023-05-08T08:34:13;4.72;;;2.90;;
74656;SDS011;63185;45.642;13.764;2023-05-08T08:36:38;7.35;;;5.35;;
74656;SDS011;63185;45.642;13.764;2023-05-08T08:39:04;4.93;;;3.47;;
74656;SDS011;63185;45.642;13.764;2023-05-08T08:41:30;6.60;;;2.80;;
74656;SDS011;63185;45.642;13.764;2023-05-08T08:43:56;5.40;;;2.75;;
74656;SDS011;63185;45.642;13.764;2023-05-08T08:46:26;5.57;;;3.33;;
74656;SDS011;63185;45.642;13.764;2023-05-08T08:48:53;5.82;;;3.45;;
74656;SDS011;63185;45.642;13.764;2023-05-08T08:56:28;4.18;;;2.83;;
74656;SDS011;63185;45.642;13.764;2023-05-08T08:58:56;5.72;;;2.42;;
74656;SDS011;63185;45.642;13.764;2023-05-08T09:01:24;3.40;;;2.40;;
74656;SDS011;63185;45.642;13.764;2023-05-08T09:03:53;4.60;;;2.60;;
74656;SDS011;63185;45.642;13.764;2023-05-08T09:06:21;3.83;;;2.88;;
74656;SDS011;63185;45.642;13.764;2023-05-08T09:08:47;4.75;;;2.80;;
74656;SDS011;63185;45.642;13.764;2023-05-08T09:11:13;6.28;;;3.13;;
74656;SDS011;63185;45.642;13.764;2023-05-08T09:13:39;4.53;;;3.28;;
74656;SDS011;63185;45.642;13.764;2023-05-08T09:16:04;6.00;;;3.80;;
74656;SDS011;63185;45.642;13.764;2023-05-08T09:18:31;4.75;;;3.42;;
74656;SDS011;63185;45.642;13.764;2023-05-08T09:20:56;6.22;;;4.15;;
74656;SDS011;63185;45.642;13.764;2023-05-08T09:23:24;10.10;;;5.43;;
74656;SDS011;63185;45.642;13.764;2023-05-08T09:25:50;6.22;;;4.75;;
74656;SDS011;63185;45.642;13.764;2023-05-08T09:33:18;6.57;;;3.72;;
74656;SDS011;63185;45.642;13.764;2023-05-08T09:35:45;8.40;;;4.90;;
74656;SDS011;63185;45.642;13.764;2023-05-08T09:41:05;10.25;;;4.70;;
74656;SDS011;63185;45.642;13.764;2023-05-08T09:43:34;6.90;;;3.00;;
74656;SDS011;63185;45.642;13.764;2023-05-08T09:48:48;6.60;;;3.28;;
74656;SDS011;63185;45.642;13.764;2023-05-08T09:51:15;4.30;;;3.00;;
74656;SDS011;63185;45.642;13.764;2023-05-08T09:53:41;8.15;;;3.13;;
74656;SDS011;63185;45.642;13.764;2023-05-08T09:56:07;4.57;;;2.72;;
74656;SDS011;63185;45.642;13.764;2023-05-08T09:58:40;4.28;;;2.90;;
74656;SDS011;63185;45.642;13.764;2023-05-08T10:01:07;5.43;;;2.90;;
74656;SDS011;63185;45.642;13.764;2023-05-08T10:03:51;5.00;;;2.70;;
74656;SDS011;63185;45.642;13.764;2023-05-08T10:06:17;3.97;;;2.67;;
74656;SDS011;63185;45.642;13.764;2023-05-08T10:08:44;5.05;;;2.83;;
74656;SDS011;63185;45.642;13.764;2023-05-08T10:11:17;5.13;;;2.70;;
74656;SDS011;63185;45.642;13.764;2023-05-08T10:13:44;5.75;;;2.58;;
74656;SDS011;63185;45.642;13.764;2023-05-08T10:16:13;6.65;;;2.20;;
74656;SDS011;63185;45.642;13.764;2023-05-08T10:18:41;3.67;;;2.67;;
74656;SDS011;63185;45.642;13.764;2023-05-08T10:21:15;5.13;;;2.53;;
74656;SDS011;63185;45.642;13.764;2023-05-08T10:23:42;4.05;;;2.58;;
74656;SDS011;63185;45.642;13.764;2023-05-08T10:26:11;4.18;;;2.00;;
74656;SDS011;63185;45.642;13.764;2023-05-08T10:31:07;4.45;;;2.25;;
74656;SDS011;63185;45.642;13.764;2023-05-08T10:33:38;3.60;;;2.30;;
74656;SDS011;63185;45.642;13.764;2023-05-08T10:36:05;4.13;;;2.08;;
74656;SDS011;63185;45.642;13.764;2023-05-08T10:38:33;4.65;;;2.20;;
74656;SDS011;63185;45.642;13.764;2023-05-08T10:41:01;2.95;;;2.05;;
74656;SDS011;63185;45.642;13.764;2023-05-08T10:43:28;4.25;;;2.30;;
74656;SDS011;63185;45.642;13.764;2023-05-08T10:45:55;3.22;;;2.13;;
74656;SDS011;63185;45.642;13.764;2023-05-08T10:48:28;5.40;;;2.65;;
74656;SDS011;63185;45.642;13.764;2023-05-08T10:53:39;3.00;;;2.13;;
74656;SDS011;63185;45.642;13.764;2023-05-08T10:56:10;2.95;;;2.33;;
74656;SDS011;63185;45.642;13.764;2023-05-08T10:58:36;3.90;;;2.00;;
74656;SDS011;63185;45.642;13.764;2023-05-08T11:03:37;2.67;;;1.80;;
74656;SDS011;63185;45.642;13.764;2023-05-08T11:06:05;3.35;;;2.20;;
74656;SDS011;63185;45.642;13.764;2023-05-08T11:08:31;4.80;;;2.33;;
74656;SDS011;63185;45.642;13.764;2023-05-08T11:16:12;4.07;;;2.47;;
74656;SDS011;63185;45.642;13.764;2023-05-08T11:19:14;4.53;;;2.33;;
74656;SDS011;63185;45.642;13.764;2023-05-08T11:32:56;6.03;;;2.58;;
74656;SDS011;63185;45.642;13.764;2023-05-08T11:38:23;7.30;;;3.00;;
74656;SDS011;63185;45.642;13.764;2023-05-08T11:46:03;3.72;;;2.50;;
74656;SDS011;63185;45.642;13.764;2023-05-08T11:48:32;3.92;;;2.80;;
74656;SDS011;63185;45.642;13.764;2023-05-08T11:50:59;5.40;;;3.10;;
74656;SDS011;63185;45.642;13.764;2023-05-08T11:53:27;5.07;;;2.83;;
74656;SDS011;63185;45.642;13.764;2023-05-08T11:55:55;4.07;;;2.85;;
74656;SDS011;63185;45.642;13.764;2023-05-08T11:58:21;4.60;;;2.72;;
74656;SDS011;63185;45.642;13.764;2023-05-08T12:00:47;5.45;;;2.80;;
74656;SDS011;63185;45.642;13.764;2023-05-08T12:05:39;5.32;;;3.05;;
74656;SDS011;63185;45.642;13.764;2023-05-08T12:08:06;5.57;;;2.88;;
74656;SDS011;63185;45.642;13.764;2023-05-08T12:13:20;8.27;;;3.13;;
74656;SDS011;63185;45.642;13.764;2023-05-08T12:15:48;8.18;;;3.15;;
74656;SDS011;63185;45.642;13.764;2023-05-08T12:18:15;5.68;;;3.20;;
74656;SDS011;63185;45.642;13.764;2023-05-08T12:20:45;6.57;;;3.00;;
74656;SDS011;63185;45.642;13.764;2023-05-08T12:23:15;7.88;;;3.30;;
74656;SDS011;63185;45.642;13.764;2023-05-08T12:25:41;4.07;;;2.90;;
74656;SDS011;63185;45.642;13.764;2023-05-08T12:28:10;5.90;;;3.20;;
74656;SDS011;63185;45.642;13.764;2023-05-08T12:30:36;5.35;;;3.45;;
74656;SDS011;63185;45.642;13.764;2023-05-08T12:33:05;4.00;;;2.80;;
74656;SDS011;63185;45.642;13.764;2023-05-08T12:35:31;6.45;;;3.22;;
74656;SDS011;63185;45.642;13.764;2023-05-08T12:38:01;5.15;;;2.70;;
74656;SDS011;63185;45.642;13.764;2023-05-08T12:40:31;4.60;;;3.28;;
74656;SDS011;63185;45.642;13.764;2023-05-08T12:42:59;7.00;;;4.05;;
74656;SDS011;63185;45.642;13.764;2023-05-08T12:45:27;9.50;;;3.20;;
74656;SDS011;63185;45.642;13.764;2023-05-08T12:48:07;4.43;;;3.40;;
74656;SDS011;63185;45.642;13.764;2023-05-08T12:50:35;6.40;;;3.20;;
74656;SDS011;63185;45.642;13.764;2023-05-08T12:53:02;5.57;;;3.00;;
74656;SDS011;63185;45.642;13.764;2023-05-08T12:55:33;6.47;;;3.40;;
74656;SDS011;63185;45.642;13.764;2023-05-08T12:58:01;8.95;;;3.13;;
74656;SDS011;63185;45.642;13.764;2023-05-08T13:03:11;5.90;;;3.13;;
74656;SDS011;63185;45.642;13.764;2023-05-08T13:05:58;8.65;;;3.30;;
74656;SDS011;63185;45.642;13.764;2023-05-08T13:10:57;4.60;;;3.03;;
74656;SDS011;63185;45.642;13.764;2023-05-08T13:13:25;5.93;;;3.50;;
74656;SDS011;63185;45.642;13.764;2023-05-08T13:15:52;4.93;;;3.60;;
74656;SDS011;63185;45.642;13.764;2023-05-08T13:18:20;7.43;;;3.42;;
74656;SDS011;63185;45.642;13.764;2023-05-08T13:20:49;6.20;;;3.75;;
74656;SDS011;63185;45.642;13.764;2023-05-08T13:23:14;8.85;;;3.60;;
74656;SDS011;63185;45.642;13.764;2023-05-08T13:25:40;4.93;;;3.42;;
74656;SDS011;63185;45.642;13.764;2023-05-08T13:28:06;6.25;;;3.83;;
74656;SDS011;63185;45.642;13.764;2023-05-08T13:30:34;5.25;;;3.42;;
74656;SDS011;63185;45.642;13.764;2023-05-08T13:33:00;6.45;;;3.25;;
74656;SDS011;63185;45.642;13.764;2023-05-08T13:35:26;4.95;;;3.38;;
74656;SDS011;63185;45.642;13.764;2023-05-08T13:37:53;4.90;;;2.78;;
74656;SDS011;63185;45.642;13.764;2023-05-08T13:40:19;6.65;;;3.28;;
74656;SDS011;63185;45.642;13.764;2023-05-08T13:42:45;4.93;;;3.30;;
74656;SDS011;63185;45.642;13.764;2023-05-08T13:45:11;5.65;;;3.42;;
74656;SDS011;63185;45.642;13.764;2023-05-08T13:47:39;4.97;;;3.25;;
74656;SDS011;63185;45.642;13.764;2023-05-08T13:50:06;5.80;;;3.10;;
74656;SDS011;63185;45.642;13.764;2023-05-08T13:52:36;4.32;;;3.40;;
74656;SDS011;63185;45.642;13.764;2023-05-08T13:55:05;7.38;;;4.28;;
74656;SDS011;63185;45.642;13.764;2023-05-08T13:57:32;4.95;;;3.20;;
74656;SDS011;63185;45.642;13.764;2023-05-08T13:59:58;5.40;;;3.30;;
74656;SDS011;63185;45.642;13.764;2023-05-08T14:02:24;4.75;;;3.20;;
74656;SDS011;63185;45.642;13.764;2023-05-08T14:04:51;4.53;;;3.17;;
74656;SDS011;63185;45.642;13.764;2023-05-08T14:07:17;5.28;;;3.10;;
74656;SDS011;63185;45.642;13.764;2023-05-08T14:09:43;4.97;;;2.97;;
74656;SDS011;63185;45.642;13.764;2023-05-08T14:12:09;4.95;;;2.85;;
74656;SDS011;63185;45.642;13.764;2023-05-08T14:14:35;3.97;;;2.80;;
74656;SDS011;63185;45.642;13.764;2023-05-08T14:17:01;7.10;;;3.40;;
74656;SDS011;63185;45.642;13.764;2023-05-08T14:19:28;5.45;;;3.10;;
74656;SDS011;63185;45.642;13.764;2023-05-08T14:21:53;4.75;;;3.17;;
74656;SDS011;63185;45.642;13.764;2023-05-08T14:24:19;4.55;;;3.22;;
74656;SDS011;63185;45.642;13.764;2023-05-08T14:26:45;5.15;;;3.15;;
74656;SDS011;63185;45.642;13.764;2023-05-08T14:29:11;3.90;;;2.70;;
74656;SDS011;63185;45.642;13.764;2023-05-08T14:31:36;5.43;;;3.13;;
74656;SDS011;63185;45.642;13.764;2023-05-08T14:34:02;4.88;;;3.08;;
74656;SDS011;63185;45.642;13.764;2023-05-08T14:36:28;4.05;;;2.50;;
74656;SDS011;63185;45.642;13.764;2023-05-08T14:38:53;4.70;;;2.45;;
74656;SDS011;63185;45.642;13.764;2023-05-08T14:41:19;5.03;;;2.80;;
74656;SDS011;63185;45.642;13.764;2023-05-08T14:43:45;4.15;;;2.40;;
74656;SDS011;63185;45.642;13.764;2023-05-08T14:46:14;4.05;;;2.33;;
74656;SDS011;63185;45.642;13.764;2023-05-08T14:48:40;5.95;;;2.85;;
74656;SDS011;63185;45.642;13.764;2023-05-08T14:51:06;4.10;;;2.30;;
74656;SDS011;63185;45.642;13.764;2023-05-08T14:53:32;5.82;;;2.85;;
74656;SDS011;63185;45.642;13.764;2023-05-08T14:55:58;3.95;;;2.70;;
74656;SDS011;63185;45.642;13.764;2023-05-08T14:58:23;3.70;;;2.42;;
74656;SDS011;63185;45.642;13.764;2023-05-08T15:00:49;6.55;;;2.22;;
74656;SDS011;63185;45.642;13.764;2023-05-08T15:03:15;5.28;;;2.22;;
74656;SDS011;63185;45.642;13.764;2023-05-08T15:05:41;3.65;;;2.67;;
74656;SDS011;63185;45.642;13.764;2023-05-08T15:08:07;3.92;;;2.42;;
74656;SDS011;63185;45.642;13.764;2023-05-08T15:10:36;3.38;;;2.30;;
74656;SDS011;63185;45.642;13.764;2023-05-08T15:13:02;4.13;;;2.50;;
74656;SDS011;63185;45.642;13.764;2023-05-08T15:15:27;6.75;;;2.20;;
74656;SDS011;63185;45.642;13.764;2023-05-08T15:17:53;3.25;;;2.30;;
74656;SDS011;63185;45.642;13.764;2023-05-08T15:20:19;3.22;;;2.20;;
74656;SDS011;63185;45.642;13.764;2023-05-08T15:22:45;4.40;;;2.20;;
74656;SDS011;63185;45.642;13.764;2023-05-08T15:25:11;4.90;;;2.30;;
74656;SDS011;63185;45.642;13.764;2023-05-08T15:27:37;3.47;;;2.38;;
74656;SDS011;63185;45.642;13.764;2023-05-08T15:30:03;4.15;;;2.10;;
74656;SDS011;63185;45.642;13.764;2023-05-08T15:32:29;4.47;;;2.17;;
74656;SDS011;63185;45.642;13.764;2023-05-08T15:34:55;3.00;;;1.95;;
74656;SDS011;63185;45.642;13.764;2023-05-08T15:37:20;3.50;;;2.38;;
74656;SDS011;63185;45.642;13.764;2023-05-08T15:39:46;3.45;;;2.38;;
74656;SDS011;63185;45.642;13.764;2023-05-08T15:42:13;5.00;;;2.08;;
74656;SDS011;63185;45.642;13.764;2023-05-08T15:44:39;3.50;;;2.35;;
74656;SDS011;63185;45.642;13.764;2023-05-08T15:47:05;3.80;;;1.95;;
74656;SDS011;63185;45.642;13.764;2023-05-08T15:49:30;2.95;;;2.00;;
74656;SDS011;63185;45.642;13.764;2023-05-08T15:51:56;5.28;;;2.40;;
74656;SDS011;63185;45.642;13.764;2023-05-08T15:54:22;4.43;;;2.40;;
74656;SDS011;63185;45.642;13.764;2023-05-08T15:56:47;3.40;;;2.08;;
74656;SDS011;63185;45.642;13.764;2023-05-08T15:59:13;3.70;;;2.55;;
74656;SDS011;63185;45.642;13.764;2023-05-08T16:01:39;4.75;;;2.10;;
74656;SDS011;63185;45.642;13.764;2023-05-08T16:04:06;4.38;;;2.35;;
74656;SDS011;63185;45.642;13.764;2023-05-08T16:06:33;2.70;;;2.03;;
74656;SDS011;63185;45.642;13.764;2023-05-08T16:08:58;3.47;;;2.28;;
74656;SDS011;63185;45.642;13.764;2023-05-08T16:11:28;3.70;;;2.10;;
74656;SDS011;63185;45.642;13.764;2023-05-08T16:13:55;2.53;;;1.80;;
74656;SDS011;63185;45.642;13.764;2023-05-08T16:16:22;3.95;;;2.15;;